Time;durP1;ratioP1;P1;durP2;ratioP2;P2;SDS_P1;SDS_P2;PMS_P1;PMS_P2;Temp;Humidity;BMP_temperature;BMP_pressure;BME280_temperature;BME280_humidity;BME280_pressure;Samples;Min_cycle;Max_cycle;Signal;HPM_P1;HPM_P2
2022/04/11 00:00:14;;;;;;;4.45;2.00;;;20.00;49.10;;;;;;5033022;28;20415;-64
2022/04/11 00:02:40;;;;;;;4.28;2.15;;;20.00;49.10;;;;;;5031377;28;20049;-64
2022/04/11 00:05:06;;;;;;;3.90;1.90;;;20.00;49.10;;;;;;5031337;28;20124;-64
2022/04/11 00:07:31;;;;;;;3.67;2.08;;;20.00;49.10;;;;;;5032948;28;20103;-64
2022/04/11 00:09:57;;;;;;;4.70;1.88;;;20.00;49.10;;;;;;5032622;28;20037;-64
2022/04/11 00:12:22;;;;;;;5.20;2.22;;;20.00;49.00;;;;;;5031744;28;20052;-64
2022/04/11 00:14:48;;;;;;;5.18;2.40;;;19.90;49.00;;;;;;5032068;28;20520;-64
2022/04/11 00:17:13;;;;;;;3.92;2.08;;;19.90;49.00;;;;;;5032806;28;20080;-64
2022/04/11 00:19:38;;;;;;;5.13;2.40;;;19.90;48.90;;;;;;5031883;28;20037;-64
2022/04/11 00:22:04;;;;;;;4.50;2.30;;;19.90;48.90;;;;;;5032667;28;20063;-64
2022/04/11 00:24:29;;;;;;;4.60;2.50;;;19.90;48.80;;;;;;5032455;28;20439;-64
2022/04/11 00:26:55;;;;;;;4.18;2.08;;;19.90;48.70;;;;;;5031416;28;20049;-64
2022/04/11 00:29:20;;;;;;;4.43;2.28;;;19.90;48.70;;;;;;5032504;28;20146;-64
2022/04/11 00:31:46;;;;;;;4.88;2.63;;;19.90;48.70;;;;;;5032444;28;20392;-64
2022/04/11 00:34:12;;;;;;;4.65;2.25;;;19.90;48.70;;;;;;5031745;28;20042;-64
2022/04/11 00:36:37;;;;;;;3.80;1.92;;;19.90;48.70;;;;;;5032782;28;20037;-64
2022/04/11 00:39:03;;;;;;;5.00;2.25;;;19.80;48.50;;;;;;5031060;28;20049;-64
2022/04/11 00:41:28;;;;;;;3.78;1.92;;;19.80;48.50;;;;;;5031658;28;20041;-64
2022/04/11 00:43:54;;;;;;;5.32;2.25;;;19.80;48.50;;;;;;5032244;28;20056;-63
2022/04/11 00:46:20;;;;;;;4.65;2.30;;;19.80;48.50;;;;;;5032528;28;20435;-63
2022/04/11 00:48:45;;;;;;;3.78;2.13;;;19.80;48.60;;;;;;5031440;28;20065;-63
2022/04/11 00:51:21;;;;;;;4.63;2.33;;;19.80;48.50;;;;;;5032536;28;20451;-63
2022/04/11 00:53:47;;;;;;;3.55;1.73;;;19.80;48.50;;;;;;5030861;28;20041;-63
2022/04/11 00:56:14;;;;;;;5.47;1.98;;;19.80;48.40;;;;;;5031550;28;20038;-64
2022/04/11 00:58:39;;;;;;;4.95;2.20;;;19.80;48.50;;;;;;5035169;28;20034;-63
2022/04/11 01:01:05;;;;;;;4.78;2.38;;;19.80;48.50;;;;;;5035429;28;20396;-64
2022/04/11 01:03:32;;;;;;;4.38;2.17;;;19.80;48.50;;;;;;5036087;28;20034;-63
2022/04/11 01:05:57;;;;;;;4.07;1.70;;;19.70;48.40;;;;;;5035915;28;20041;-63
2022/04/11 01:08:23;;;;;;;4.25;2.13;;;19.70;48.40;;;;;;5035379;28;20045;-64
2022/04/11 01:10:48;;;;;;;3.78;1.92;;;19.70;48.40;;;;;;5034487;28;20120;-63
2022/04/11 01:13:14;;;;;;;3.85;2.17;;;19.70;48.30;;;;;;5035950;28;20045;-63
2022/04/11 01:15:40;;;;;;;4.25;2.10;;;19.70;48.30;;;;;;5034023;28;20484;-64
2022/04/11 01:18:05;;;;;;;4.47;1.88;;;19.70;48.30;;;;;;5035672;28;20099;-63
2022/04/11 01:20:31;;;;;;;4.55;2.33;;;19.70;48.30;;;;;;5035813;28;20045;-63
2022/04/11 01:22:56;;;;;;;4.38;2.10;;;19.70;48.30;;;;;;5034229;28;20045;-63
2022/04/11 01:25:22;;;;;;;4.72;2.13;;;19.70;48.20;;;;;;5035775;28;20048;-63
2022/04/11 01:27:47;;;;;;;4.55;2.42;;;19.70;48.20;;;;;;5034268;28;20045;-63
2022/04/11 01:30:14;;;;;;;5.03;2.28;;;19.70;48.20;;;;;;5034554;28;20136;-64
2022/04/11 01:32:39;;;;;;;4.75;2.40;;;19.70;48.10;;;;;;5035353;28;20432;-63
2022/04/11 01:35:17;;;;;;;3.95;2.17;;;19.70;48.10;;;;;;5035033;28;20049;-63
2022/04/11 01:37:42;;;;;;;4.90;2.28;;;19.70;48.10;;;;;;5033396;28;20099;-63
2022/04/11 01:40:09;;;;;;;3.95;2.08;;;19.70;48.10;;;;;;5035554;28;20135;-63
2022/04/11 01:42:34;;;;;;;4.68;1.92;;;19.70;48.10;;;;;;5035285;28;20084;-63
2022/04/11 01:45:00;;;;;;;4.55;2.17;;;19.70;48.20;;;;;;5034297;28;20041;-63
2022/04/11 01:47:25;;;;;;;4.40;2.10;;;19.70;48.90;;;;;;5035275;28;20052;-63
2022/04/11 01:49:51;;;;;;;4.60;1.92;;;19.70;48.10;;;;;;5034914;28;20045;-63
2022/04/11 01:52:16;;;;;;;5.57;2.28;;;19.80;48.10;;;;;;5034225;28;20041;-63
2022/04/11 01:54:42;;;;;;;4.03;1.98;;;19.80;48.10;;;;;;5034752;28;20045;-63
2022/04/11 01:57:07;;;;;;;4.18;2.22;;;19.80;48.20;;;;;;5034571;28;20081;-63
2022/04/11 01:59:33;;;;;;;3.95;1.85;;;19.80;48.20;;;;;;5034769;28;20045;-63
2022/04/11 02:01:58;;;;;;;4.75;2.08;;;19.80;48.50;;;;;;5034193;28;20037;-63
2022/04/11 02:04:24;;;;;;;4.35;1.90;;;19.80;48.20;;;;;;5033086;28;20115;-63
2022/04/11 02:06:49;;;;;;;4.40;2.17;;;19.80;48.20;;;;;;5033738;28;20041;-63
2022/04/11 02:09:15;;;;;;;4.22;2.03;;;19.80;48.20;;;;;;5033762;28;20080;-63
2022/04/11 02:11:40;;;;;;;5.72;2.10;;;19.90;48.20;;;;;;5034242;28;20044;-63
2022/04/11 02:14:06;;;;;;;4.20;2.10;;;19.90;48.20;;;;;;5034394;28;20099;-63
2022/04/11 02:16:31;;;;;;;4.10;2.10;;;19.90;48.10;;;;;;5034914;28;20037;-63
2022/04/11 02:18:57;;;;;;;4.55;2.33;;;19.90;48.10;;;;;;5033905;28;20155;-63
2022/04/11 02:21:22;;;;;;;4.90;1.90;;;19.90;48.20;;;;;;5034648;28;20046;-63
2022/04/11 02:23:48;;;;;;;4.85;2.33;;;19.90;48.10;;;;;;5034409;28;20048;-63
2022/04/11 02:26:13;;;;;;;3.95;1.90;;;19.90;48.00;;;;;;5033130;28;20412;-63
2022/04/11 02:28:39;;;;;;;4.78;2.42;;;19.90;48.00;;;;;;5033951;28;20046;-63
2022/04/11 02:31:04;;;;;;;4.13;2.00;;;19.90;48.00;;;;;;5033720;28;20059;-63
2022/04/11 02:33:30;;;;;;;3.88;1.77;;;19.90;48.00;;;;;;5033741;28;20485;-63
2022/04/11 02:35:55;;;;;;;3.88;1.90;;;20.00;48.10;;;;;;5034138;28;20044;-63
2022/04/11 02:38:22;;;;;;;4.90;2.20;;;20.00;48.10;;;;;;5034489;28;20045;-63
2022/04/11 02:40:48;;;;;;;6.30;1.92;;;20.00;48.10;;;;;;5033298;28;20048;-63
2022/04/11 02:43:13;;;;;;;4.45;2.10;;;20.00;48.00;;;;;;5034103;28;20132;-63
2022/04/11 02:45:38;;;;;;;4.25;1.95;;;20.00;48.00;;;;;;5034342;28;20046;-63
2022/04/11 02:48:04;;;;;;;7.22;2.10;;;20.00;48.00;;;;;;5033297;28;20049;-63
2022/04/11 02:50:30;;;;;;;4.07;2.13;;;20.00;47.90;;;;;;5033984;28;20073;-64
2022/04/11 02:52:55;;;;;;;4.22;2.10;;;20.00;47.90;;;;;;5033729;28;20048;-63
2022/04/11 02:55:21;;;;;;;4.80;2.10;;;20.00;47.90;;;;;;5032824;28;20064;-64
2022/04/11 02:57:46;;;;;;;4.63;2.20;;;20.00;47.90;;;;;;5033684;28;20069;-63
2022/04/11 03:00:13;;;;;;;4.13;1.90;;;20.00;47.90;;;;;;5033819;28;20095;-63
2022/04/11 03:02:39;;;;;;;3.53;1.85;;;20.00;47.80;;;;;;5033351;28;20041;-64
2022/04/11 03:05:05;;;;;;;4.35;2.03;;;20.10;47.80;;;;;;5033115;28;20096;-63
2022/04/11 03:07:30;;;;;;;3.63;1.90;;;20.10;47.80;;;;;;5033296;28;20068;-63
2022/04/11 03:09:56;;;;;;;3.47;1.83;;;20.10;47.80;;;;;;5033501;28;20045;-63
2022/04/11 03:12:21;;;;;;;3.45;1.70;;;20.10;47.80;;;;;;5033697;28;20050;-64
2022/04/11 03:14:48;;;;;;;4.13;2.28;;;20.10;47.80;;;;;;5032505;28;20045;-63
2022/04/11 03:17:14;;;;;;;4.35;2.00;;;20.10;47.80;;;;;;5033526;28;20065;-63
2022/04/11 03:19:42;;;;;;;4.55;2.00;;;20.10;48.50;;;;;;5032506;28;20416;-63
2022/04/11 03:22:09;;;;;;;4.47;1.60;;;20.10;47.80;;;;;;5032709;28;20037;-63
2022/04/11 03:24:34;;;;;;;4.47;2.13;;;20.10;47.70;;;;;;5033399;28;20089;-64
2022/04/11 03:27:00;;;;;;;3.85;2.08;;;20.10;47.70;;;;;;5033311;28;20072;-63
2022/04/11 03:29:25;;;;;;;4.43;2.20;;;20.10;47.70;;;;;;5032563;28;20077;-63
2022/04/11 03:31:51;;;;;;;4.55;1.73;;;20.10;48.40;;;;;;5033263;28;20041;-63
2022/04/11 03:34:16;;;;;;;3.13;1.65;;;20.10;47.70;;;;;;5032939;28;20073;-64
2022/04/11 03:36:42;;;;;;;3.80;1.80;;;20.10;47.70;;;;;;5032640;28;20040;-63
2022/04/11 03:39:07;;;;;;;3.65;1.63;;;20.10;47.70;;;;;;5032879;28;20421;-63
2022/04/11 03:41:33;;;;;;;2.78;1.50;;;20.10;47.70;;;;;;5033118;28;20128;-63
2022/04/11 03:43:58;;;;;;;3.60;1.70;;;20.20;47.70;;;;;;5032321;28;20051;-63
2022/04/11 03:46:24;;;;;;;3.58;1.55;;;20.20;47.70;;;;;;5033034;28;20100;-63
2022/04/11 03:48:49;;;;;;;4.60;1.88;;;20.20;47.70;;;;;;5032684;28;20037;-63
2022/04/11 03:51:15;;;;;;;3.28;1.80;;;20.20;47.60;;;;;;5032175;28;20099;-63
2022/04/11 03:53:41;;;;;;;3.60;1.63;;;20.20;47.60;;;;;;5032831;28;20505;-63
2022/04/11 03:56:06;;;;;;;3.22;1.35;;;20.20;47.60;;;;;;5032676;28;20116;-63
2022/04/11 03:58:32;;;;;;;3.55;1.63;;;20.20;47.50;;;;;;5032320;28;20116;-63
2022/04/11 04:00:57;;;;;;;3.33;1.60;;;20.20;47.50;;;;;;5032358;28;20534;-63
2022/04/11 04:03:23;;;;;;;2.65;1.35;;;20.20;47.50;;;;;;5032499;28;20055;-63
2022/04/11 04:05:48;;;;;;;2.50;1.52;;;20.20;47.50;;;;;;5030967;28;20536;-63
2022/04/11 04:08:17;;;;;;;4.03;1.65;;;20.20;47.50;;;;;;5032609;28;20049;-63
2022/04/11 04:10:42;;;;;;;;;;;20.20;47.50;;;;;;5032842;28;20524;-63
2022/04/11 04:13:08;;;;;;;3.17;1.30;;;20.20;47.50;;;;;;5032079;28;19921;-63
2022/04/11 04:15:33;;;;;;;2.50;1.40;;;20.20;47.50;;;;;;5032566;28;20045;-63
2022/04/11 04:17:59;;;;;;;3.88;1.42;;;20.20;47.40;;;;;;5031891;28;20107;-63
2022/04/11 04:20:26;;;;;;;3.33;1.33;;;20.30;47.50;;;;;;5032721;28;20059;-63
2022/04/11 04:22:54;;;;;;;2.83;1.50;;;20.30;47.50;;;;;;5032252;28;20049;-63
2022/04/11 04:25:19;;;;;;;2.30;1.20;;;20.30;47.50;;;;;;5030548;28;20053;-63
2022/04/11 04:27:45;;;;;;;2.45;1.20;;;20.30;47.50;;;;;;5032448;28;20038;-63
2022/04/11 04:30:10;;;;;;;2.97;1.33;;;20.30;47.50;;;;;;5032426;28;20045;-63
2022/04/11 04:32:36;;;;;;;2.10;1.17;;;20.30;47.50;;;;;;5034742;28;20436;-63
2022/04/11 04:35:02;;;;;;;2.33;1.13;;;20.30;47.40;;;;;;5036351;28;20128;-63
2022/04/11 04:37:27;;;;;;;2.75;1.40;;;20.30;47.50;;;;;;5036719;28;20088;-63
2022/04/11 04:39:53;;;;;;;3.67;1.35;;;20.30;47.40;;;;;;5035138;28;20104;-63
2022/04/11 04:42:22;;;;;;;2.28;1.25;;;20.30;47.40;;;;;;5035468;28;20060;-63
2022/04/11 04:44:47;;;;;;;3.08;1.23;;;20.30;47.40;;;;;;5036180;28;20041;-63
2022/04/11 04:47:15;;;;;;;2.42;1.30;;;20.30;47.40;;;;;;5035650;28;20511;-63
2022/04/11 04:49:41;;;;;;;2.90;1.50;;;20.30;47.50;;;;;;5036486;28;20048;-63
2022/04/11 04:52:07;;;;;;;2.35;1.10;;;20.30;47.40;;;;;;5036166;28;20045;-64
2022/04/11 04:54:32;;;;;;;2.42;1.27;;;20.30;47.40;;;;;;5034187;28;20052;-63
2022/04/11 04:56:58;;;;;;;2.90;1.42;;;20.30;47.40;;;;;;5036061;28;20038;-63
2022/04/11 04:59:24;;;;;;;2.45;1.05;;;20.40;47.50;;;;;;5036519;28;20087;-63
2022/04/11 05:01:50;;;;;;;2.90;1.13;;;20.40;47.40;;;;;;5035250;28;20088;-63
2022/04/11 05:04:15;;;;;;;2.60;1.30;;;20.40;47.40;;;;;;5036162;28;20045;-63
2022/04/11 05:06:40;;;;;;;1.88;1.02;;;20.30;47.40;;;;;;5036114;28;20090;-63
2022/04/11 05:09:06;;;;;;;2.13;1.10;;;20.30;47.30;;;;;;5035215;28;20489;-63
2022/04/11 05:11:31;;;;;;;2.75;1.35;;;20.40;47.40;;;;;;5035814;28;20037;-63
2022/04/11 05:13:57;;;;;;;2.45;1.10;;;20.40;47.50;;;;;;5035666;28;20048;-63
2022/04/11 05:16:22;;;;;;;3.03;1.30;;;20.40;47.40;;;;;;5035240;28;20048;-63
2022/04/11 05:18:48;;;;;;;2.95;1.30;;;20.40;47.40;;;;;;5035299;28;20061;-63
2022/04/11 05:21:13;;;;;;;3.40;1.30;;;20.40;47.40;;;;;;5035670;28;20492;-63
2022/04/11 05:23:41;;;;;;;2.88;1.40;;;20.40;47.40;;;;;;5035702;28;20052;-63
2022/04/11 05:26:07;;;;;;;3.05;1.00;;;20.40;47.40;;;;;;5035519;28;20117;-63
2022/04/11 05:28:33;;;;;;;2.60;1.48;;;20.40;47.40;;;;;;5034811;28;20124;-64
2022/04/11 05:30:58;;;;;;;2.92;1.33;;;20.40;47.40;;;;;;5034688;28;20129;-63
2022/04/11 05:33:24;;;;;;;2.90;1.40;;;20.40;47.50;;;;;;5035573;28;20054;-63
2022/04/11 05:35:50;;;;;;;2.78;1.50;;;20.40;47.50;;;;;;5034586;28;20044;-63
2022/04/11 05:38:16;;;;;;;3.05;1.20;;;20.40;47.40;;;;;;5035623;28;20041;-64
2022/04/11 05:40:45;;;;;;;2.70;1.30;;;20.40;47.40;;;;;;5035581;28;20077;-63
2022/04/11 05:43:13;;;;;;;2.55;1.25;;;20.40;47.30;;;;;;5033392;28;20481;-63
2022/04/11 05:45:39;;;;;;;2.23;1.10;;;20.40;47.40;;;;;;5035374;28;20075;-63
2022/04/11 05:48:05;;;;;;;2.67;1.30;;;20.40;47.40;;;;;;5035140;28;20530;-63
2022/04/11 05:50:30;;;;;;;3.25;1.60;;;20.40;47.40;;;;;;5034501;28;20132;-63
2022/04/11 05:52:56;;;;;;;2.40;1.30;;;20.50;48.20;;;;;;5034982;28;20076;-63
2022/04/11 05:55:23;;;;;;;3.22;1.40;;;20.40;47.40;;;;;;5035291;28;20132;-63
2022/04/11 05:57:48;;;;;;;2.60;1.20;;;20.50;47.50;;;;;;5034041;28;20471;-63
2022/04/11 06:00:15;;;;;;;2.58;1.30;;;20.50;47.40;;;;;;5035075;28;20045;-63
2022/04/11 06:02:40;;;;;;;1.45;1.05;;;20.50;47.50;;;;;;5034835;28;20378;-63
2022/04/11 06:05:07;;;;;;;2.70;1.40;;;20.50;47.50;;;;;;5033671;28;20493;-63
2022/04/11 06:07:33;;;;;;;2.25;1.20;;;20.50;47.50;;;;;;5034652;28;20126;-63
2022/04/11 06:09:59;;;;;;;3.95;1.52;;;20.50;47.50;;;;;;5034790;28;20556;-64
2022/04/11 06:12:25;;;;;;;2.70;1.25;;;20.50;47.50;;;;;;5034327;28;20095;-63
2022/04/11 06:14:53;;;;;;;2.55;1.45;;;20.50;47.50;;;;;;5034273;28;20408;-63
2022/04/11 06:17:23;;;;;;;3.35;1.70;;;20.50;47.50;;;;;;5034791;28;20046;-63
2022/04/11 06:19:52;;;;;;;1.83;1.10;;;20.50;47.50;;;;;;5034219;28;20132;-64
2022/04/11 06:22:17;;;;;;;3.53;1.33;;;20.50;47.50;;;;;;5034777;28;20048;-64
2022/04/11 06:24:44;;;;;;;3.20;1.50;;;20.50;47.50;;;;;;5033621;28;20041;-64
2022/04/11 06:27:09;;;;;;;1.88;1.20;;;20.50;47.50;;;;;;5035185;28;20072;-68
2022/04/11 06:29:35;;;;;;;3.42;1.60;;;20.50;47.50;;;;;;5034327;28;20088;-68
2022/04/11 06:32:04;;;;;;;4.72;1.70;;;20.60;47.50;;;;;;5033642;28;20041;-67
2022/04/11 06:34:34;;;;;;;3.47;1.38;;;20.60;47.60;;;;;;5034293;28;20046;-69
2022/04/11 06:36:59;;;;;;;3.55;1.60;;;20.50;47.50;;;;;;5034277;28;20046;-69
2022/04/11 06:39:25;;;;;;;3.30;1.50;;;20.60;47.60;;;;;;5033314;28;20499;-69
2022/04/11 06:41:51;;;;;;;3.55;1.25;;;20.60;47.70;;;;;;5033927;28;20041;-67
2022/04/11 06:44:16;;;;;;;2.72;1.20;;;20.60;47.80;;;;;;5033934;28;20064;-67
2022/04/11 06:46:42;;;;;;;2.67;1.50;;;20.60;47.80;;;;;;5033353;28;20073;-67
2022/04/11 06:49:07;;;;;;;3.30;1.20;;;20.60;47.70;;;;;;5033980;28;20084;-67
2022/04/11 06:51:33;;;;;;;3.85;1.33;;;20.60;47.70;;;;;;5033647;28;20120;-67
2022/04/11 06:53:58;;;;;;;4.30;1.58;;;20.60;47.80;;;;;;5032769;28;20074;-67
2022/04/11 06:56:24;;;;;;;2.92;1.30;;;20.60;47.90;;;;;;5033708;28;20115;-67
2022/04/11 06:58:49;;;;;;;3.20;1.27;;;20.70;48.00;;;;;;5033806;28;20053;-67
2022/04/11 07:01:15;;;;;;;3.35;1.58;;;20.70;48.00;;;;;;5033259;28;20048;-67
2022/04/11 07:03:40;;;;;;;3.45;1.60;;;20.70;47.90;;;;;;5033993;28;20048;-66
2022/04/11 07:06:07;;;;;;;14.02;1.83;;;20.70;48.00;;;;;;5033326;28;20498;-67
2022/04/11 07:08:32;;;;;;;2.70;1.48;;;20.70;48.00;;;;;;5033287;28;20049;-68
2022/04/11 07:10:59;;;;;;;4.18;1.15;;;20.70;48.10;;;;;;5033212;28;20389;-67
2022/04/11 07:13:24;;;;;;;5.43;1.58;;;20.70;48.10;;;;;;5033722;28;20523;-69
2022/04/11 07:15:50;;;;;;;4.78;1.42;;;20.70;48.30;;;;;;5032727;28;20037;-69
2022/04/11 07:18:15;;;;;;;3.45;1.30;;;20.70;48.40;;;;;;5033775;28;20099;-69
2022/04/11 07:20:41;;;;;;;5.05;1.45;;;20.80;48.50;;;;;;5032975;28;20497;-69
2022/04/11 07:23:06;;;;;;;2.80;1.20;;;20.80;48.70;;;;;;5032969;28;20045;-69
2022/04/11 07:25:32;;;;;;;3.65;1.30;;;20.80;48.80;;;;;;5033424;28;20449;-69
2022/04/11 07:27:58;;;;;;;3.72;1.27;;;20.80;48.80;;;;;;5032051;28;20347;-67
2022/04/11 07:30:23;;;;;;;2.92;1.30;;;20.80;48.90;;;;;;5031252;28;20059;-69
2022/04/11 07:32:49;;;;;;;3.80;1.48;;;20.80;49.00;;;;;;5018808;28;20048;-70
2022/04/11 07:35:14;;;;;;;3.47;1.10;;;20.80;49.00;;;;;;5015555;28;20093;-71
2022/04/11 07:37:40;;;;;;;3.67;1.20;;;20.80;49.10;;;;;;5013235;28;20078;-68
2022/04/11 07:40:06;;;;;;;3.67;1.30;;;20.90;49.20;;;;;;5013213;28;20103;-68
2022/04/11 07:42:31;;;;;;;2.33;1.00;;;20.90;49.10;;;;;;5012723;28;20477;-69
2022/04/11 07:44:57;;;;;;;4.70;1.00;;;20.90;49.10;;;;;;5013001;28;20053;-68
2022/04/11 07:47:22;;;;;;;4.70;1.30;;;20.90;49.10;;;;;;5013125;28;20100;-68
2022/04/11 07:49:48;;;;;;;2.38;1.13;;;20.90;49.10;;;;;;5012198;28;20049;-68
2022/04/11 07:52:13;;;;;;;3.25;1.20;;;20.90;49.10;;;;;;5013321;28;20042;-68
2022/04/11 07:54:39;;;;;;;4.03;1.65;;;20.90;49.10;;;;;;5013197;28;20394;-68
2022/04/11 07:57:05;;;;;;;2.75;1.40;;;20.90;48.90;;;;;;5012201;28;20485;-70
2022/04/11 07:59:30;;;;;;;8.77;1.65;;;20.90;48.80;;;;;;5013301;28;20401;-71
2022/04/11 08:01:56;;;;;;;4.85;1.52;;;20.90;48.80;;;;;;5017505;28;20484;-73
2022/04/11 08:04:21;;;;;;;3.60;1.50;;;20.90;48.80;;;;;;5028143;28;20052;-77
2022/04/11 08:06:47;;;;;;;2.80;1.08;;;20.90;48.90;;;;;;5031909;28;20037;-72
2022/04/11 08:09:12;;;;;;;4.75;1.30;;;21.00;49.20;;;;;;5032704;28;20056;-70
2022/04/11 08:11:38;;;;;;;7.15;1.30;;;21.00;49.30;;;;;;5030724;28;20046;-69
2022/04/11 08:14:03;;;;;;;3.80;1.33;;;21.00;49.30;;;;;;5028227;28;20553;-71
2022/04/11 08:16:29;;;;;;;4.32;1.35;;;21.10;49.40;;;;;;5012900;28;20033;-70
2022/04/11 08:18:54;;;;;;;4.50;1.35;;;21.10;49.20;;;;;;5010782;28;20046;-70
2022/04/11 08:21:20;;;;;;;5.97;1.40;;;21.10;49.10;;;;;;5012021;28;20053;-70
2022/04/11 08:23:45;;;;;;;3.17;1.27;;;21.10;49.20;;;;;;5012580;28;20096;-69
2022/04/11 08:26:11;;;;;;;2.35;1.30;;;21.10;49.20;;;;;;5012266;28;20454;-70
2022/04/11 08:28:37;;;;;;;2.35;1.00;;;21.10;49.10;;;;;;5013041;28;20407;-70
2022/04/11 08:31:02;;;;;;;5.88;1.15;;;21.10;49.10;;;;;;5011586;28;20068;-70
2022/04/11 08:33:28;;;;;;;8.95;1.33;;;21.10;49.20;;;;;;5012755;28;20042;-69
2022/04/11 08:35:53;;;;;;;4.82;1.45;;;21.20;49.30;;;;;;5012313;28;20058;-70
2022/04/11 08:38:19;;;;;;;4.15;1.42;;;21.10;49.30;;;;;;5010858;28;20042;-69
2022/04/11 08:40:45;;;;;;;5.18;1.77;;;21.10;49.30;;;;;;5013511;28;20050;-70
2022/04/11 08:43:11;;;;;;;3.20;1.58;;;21.20;49.40;;;;;;5012632;28;20104;-70
2022/04/11 08:45:36;;;;;;;4.82;2.05;;;21.20;49.60;;;;;;5011733;28;20049;-69
2022/04/11 08:48:02;;;;;;;4.10;2.10;;;21.20;49.70;;;;;;5011377;28;20368;-70
2022/04/11 08:50:27;;;;;;;6.28;2.50;;;21.20;49.70;;;;;;5012630;28;20046;-70
2022/04/11 08:52:54;;;;;;;5.13;2.20;;;21.30;49.80;;;;;;5011834;28;20053;-68
2022/04/11 08:55:21;;;;;;;5.32;2.30;;;21.30;49.90;;;;;;5013353;28;20049;-69
2022/04/11 08:57:47;;;;;;;5.18;2.30;;;21.30;49.90;;;;;;5012538;28;20046;-69
2022/04/11 09:00:14;;;;;;;4.90;2.45;;;21.30;50.00;;;;;;5011810;28;20121;-68
2022/04/11 09:02:41;;;;;;;6.35;2.05;;;21.40;50.10;;;;;;5011196;28;20188;-68
2022/04/11 09:05:07;;;;;;;6.28;2.63;;;21.40;50.10;;;;;;5012241;28;20038;-70
2022/04/11 09:07:53;;;;;;;4.60;2.00;;;21.40;50.10;;;;;;5011436;28;20450;-66
2022/04/11 09:10:19;;;;;;;5.47;2.30;;;21.40;50.10;;;;;;5012433;28;20034;-66
2022/04/11 09:12:46;;;;;;;6.05;2.42;;;21.40;50.10;;;;;;5011894;28;20354;-66
2022/04/11 09:15:12;;;;;;;8.23;2.20;;;21.50;50.00;;;;;;5011674;28;20196;-69
2022/04/11 09:17:41;;;;;;;9.57;2.28;;;21.40;49.50;;;;;;5012428;28;20129;-70
2022/04/11 09:20:10;;;;;;;8.27;2.35;;;21.50;49.20;;;;;;5015224;28;20045;-70
2022/04/11 09:22:35;;;;;;;9.65;2.22;;;21.50;49.10;;;;;;5015466;28;20073;-70
2022/04/11 09:25:20;;;;;;;12.40;2.80;;;21.40;48.90;;;;;;5015418;28;20564;-70
2022/04/11 09:27:46;;;;;;;11.52;2.60;;;21.40;48.90;;;;;;5013546;28;20083;-70
2022/04/11 09:30:27;;;;;;;8.00;2.17;;;21.50;49.00;;;;;;5015498;28;20054;-70
2022/04/11 09:33:12;;;;;;;7.82;1.65;;;21.50;49.10;;;;;;5015654;28;20107;-70
2022/04/11 09:35:43;;;;;;;7.05;1.88;;;21.40;49.10;;;;;;5014795;28;20494;-70
2022/04/11 09:38:16;;;;;;;5.47;2.38;;;21.50;49.10;;;;;;5015561;28;20397;-70
2022/04/11 09:40:43;;;;;;;5.13;1.77;;;21.50;49.10;;;;;;5015621;28;20117;-71
2022/04/11 09:43:10;;;;;;;5.72;1.63;;;21.50;49.10;;;;;;5017856;28;20041;-70
2022/04/11 09:45:46;;;;;;;5.82;1.83;;;21.50;49.10;;;;;;5015866;28;20053;-71
2022/04/11 09:48:16;;;;;;;6.22;1.95;;;21.50;49.10;;;;;;5015626;28;20052;-71
2022/04/11 09:50:42;;;;;;;7.10;2.20;;;21.50;49.10;;;;;;5014971;28;20053;-71
2022/04/11 09:53:08;;;;;;;6.50;1.83;;;21.50;49.20;;;;;;5015127;28;20046;-71
2022/04/11 09:55:37;;;;;;;5.03;1.80;;;21.50;49.10;;;;;;5014611;28;20045;-70
2022/04/11 09:58:03;;;;;;;5.45;1.85;;;21.50;49.10;;;;;;5015304;28;20169;-70
2022/04/11 10:00:29;;;;;;;9.00;2.20;;;21.50;49.10;;;;;;5015557;28;20120;-70
2022/04/11 10:02:57;;;;;;;6.15;1.80;;;21.50;49.10;;;;;;5013271;28;20053;-70
2022/04/11 10:05:24;;;;;;;5.53;2.30;;;21.50;49.10;;;;;;5015329;28;20052;-72
2022/04/11 10:07:52;;;;;;;4.57;1.63;;;21.60;49.20;;;;;;5013702;28;20056;-72
2022/04/11 10:10:18;;;;;;;4.05;1.60;;;21.60;49.20;;;;;;5014573;28;20169;-72
2022/04/11 10:12:43;;;;;;;5.03;1.63;;;21.50;49.20;;;;;;5014994;28;20121;-72
2022/04/11 10:15:09;;;;;;;5.18;1.70;;;21.60;49.30;;;;;;5015097;28;20037;-72
2022/04/11 10:17:34;;;;;;;3.97;1.75;;;21.50;49.20;;;;;;5013409;28;20050;-72
2022/04/11 10:20:00;;;;;;;3.95;1.83;;;21.60;49.20;;;;;;5014789;28;20044;-72
2022/04/11 10:22:27;;;;;;;6.38;1.63;;;21.60;49.20;;;;;;5015103;28;20050;-72
2022/04/11 10:25:04;;;;;;;4.00;1.70;;;21.60;49.30;;;;;;5012851;28;20461;-72
2022/04/11 10:27:29;;;;;;;4.73;1.60;;;21.60;49.20;;;;;;5015073;28;20052;-72
2022/04/11 10:29:55;;;;;;;3.75;1.50;;;21.60;49.30;;;;;;5012777;28;20054;-72
2022/04/11 10:32:25;;;;;;;7.13;1.60;;;21.60;49.30;;;;;;5014207;28;20049;-72
2022/04/11 10:34:55;;;;;;;2.97;1.48;;;21.50;49.30;;;;;;5012944;28;20450;-72
2022/04/11 10:37:26;;;;;;;2.78;1.30;;;21.60;49.40;;;;;;5014710;28;20054;-72
2022/04/11 10:39:52;;;;;;;5.63;1.58;;;21.50;49.30;;;;;;5013304;28;20450;-72
2022/04/11 10:42:25;;;;;;;4.35;1.73;;;21.60;49.40;;;;;;5014434;28;20474;-72
2022/04/11 10:44:56;;;;;;;4.68;1.30;;;21.50;49.40;;;;;;5013587;28;20056;-72
2022/04/11 10:47:30;;;;;;;4.45;1.30;;;21.50;49.40;;;;;;5014987;28;20034;-72
2022/04/11 10:49:59;;;;;;;3.28;1.38;;;21.60;49.40;;;;;;5014192;28;20054;-72
2022/04/11 10:52:33;;;;;;;2.90;1.30;;;21.50;49.40;;;;;;5014024;28;20050;-72
2022/04/11 10:55:14;;;;;;;3.75;1.25;;;21.50;49.40;;;;;;5014160;28;20057;-72
2022/04/11 10:57:41;;;;;;;3.25;1.20;;;21.50;49.50;;;;;;5014264;28;20041;-72
2022/04/11 11:00:13;;;;;;;4.70;1.35;;;21.50;49.50;;;;;;5013048;28;20060;-72
2022/04/11 11:02:59;;;;;;;2.85;1.25;;;21.50;49.50;;;;;;5014477;28;20045;-72
2022/04/11 11:05:41;;;;;;;2.55;1.30;;;21.50;49.40;;;;;;5014158;28;20042;-72
2022/04/11 11:08:13;;;;;;;3.80;1.27;;;21.60;49.50;;;;;;5013115;28;20064;-72
2022/04/11 11:10:48;;;;;;;2.35;1.08;;;21.60;49.50;;;;;;5013927;28;20516;-72
2022/04/11 11:13:36;;;;;;;3.97;1.20;;;21.50;49.40;;;;;;5013465;28;20155;-72
2022/04/11 11:16:21;;;;;;;3.40;1.10;;;21.60;49.50;;;;;;5013871;28;20046;-72
2022/04/11 11:18:50;;;;;;;3.45;1.10;;;21.50;49.40;;;;;;5013399;28;20041;-73
2022/04/11 11:21:27;;;;;;;3.38;1.27;;;21.50;49.40;;;;;;5013050;28;20141;-72
2022/04/11 11:24:02;;;;;;;5.03;1.30;;;21.60;49.50;;;;;;5013856;28;20064;-72
2022/04/11 11:26:29;;;;;;;3.17;1.08;;;21.60;49.40;;;;;;5013936;28;20046;-72
2022/04/11 11:28:54;;;;;;;3.67;1.30;;;21.60;49.50;;;;;;5012901;28;20042;-72
2022/04/11 11:31:20;;;;;;;2.00;0.90;;;21.60;49.50;;;;;;5013314;28;20119;-72
2022/04/11 11:33:50;;;;;;;2.22;0.98;;;21.50;49.50;;;;;;5012047;28;20141;-72
2022/04/11 11:36:15;;;;;;;4.07;1.20;;;21.50;49.50;;;;;;5013177;28;20501;-72
2022/04/11 11:38:41;;;;;;;4.15;1.17;;;21.60;49.50;;;;;;5013530;28;20046;-72
2022/04/11 11:41:06;;;;;;;2.63;1.00;;;21.50;49.50;;;;;;5011988;28;20073;-72
2022/04/11 11:43:32;;;;;;;2.90;0.82;;;21.50;49.50;;;;;;5013525;28;20042;-72
2022/04/11 11:45:58;;;;;;;3.05;1.25;;;21.50;49.50;;;;;;5013040;28;20052;-72
2022/04/11 11:48:31;;;;;;;2.78;1.10;;;21.60;49.50;;;;;;5012963;28;20042;-72
2022/04/11 11:50:58;;;;;;;2.58;1.08;;;21.60;49.50;;;;;;5011638;28;20074;-72
2022/04/11 11:53:39;;;;;;;3.70;1.10;;;21.60;49.50;;;;;;5013785;28;20053;-72
2022/04/11 11:56:07;;;;;;;3.72;1.10;;;21.60;49.50;;;;;;5018333;28;20099;-72
2022/04/11 11:58:37;;;;;;;2.63;1.10;;;21.50;49.50;;;;;;5033133;28;20065;-72
2022/04/11 12:01:04;;;;;;;3.10;1.00;;;21.60;49.50;;;;;;5032765;28;20089;-72
2022/04/11 12:06:25;;;;;;;2.45;1.05;;;21.50;49.40;;;;;;5031801;28;20053;-72
2022/04/11 12:09:01;;;;;;;1.85;0.90;;;21.60;49.50;;;;;;5032809;28;20045;-72
2022/04/11 12:11:27;;;;;;;1.98;0.95;;;21.60;49.40;;;;;;5032511;28;20053;-72
2022/04/11 12:14:00;;;;;;;2.47;0.98;;;21.60;49.40;;;;;;5032688;28;20038;-72
2022/04/11 12:16:25;;;;;;;2.22;0.90;;;21.60;49.40;;;;;;5032229;28;20049;-72
2022/04/11 12:18:53;;;;;;;2.78;0.90;;;21.60;49.40;;;;;;5031175;28;20045;-72
2022/04/11 12:21:18;;;;;;;2.10;0.90;;;21.60;49.40;;;;;;5032640;28;20042;-72
2022/04/11 12:23:48;;;;;;;2.03;1.00;;;21.60;49.30;;;;;;5031801;28;20065;-72
2022/04/11 12:26:34;;;;;;;2.55;0.90;;;21.60;49.40;;;;;;5032815;28;20045;-72
2022/04/11 12:29:10;;;;;;;2.25;0.95;;;21.60;49.40;;;;;;5032422;28;20077;-72
2022/04/11 12:31:37;;;;;;;2.42;0.93;;;21.60;49.40;;;;;;5030721;28;20033;-72
2022/04/11 12:34:12;;;;;;;1.90;1.00;;;21.60;49.40;;;;;;5032020;28;20404;-72
2022/04/11 12:36:38;;;;;;;2.83;1.08;;;21.60;49.40;;;;;;5032543;28;20038;-72
2022/04/11 12:39:13;;;;;;;1.65;0.77;;;21.60;49.70;;;;;;5030231;28;20052;-72
2022/04/11 12:41:46;;;;;;;3.35;0.95;;;21.60;49.30;;;;;;5032631;28;20080;-72
2022/04/11 12:44:34;;;;;;;2.30;0.82;;;21.60;49.30;;;;;;5032399;28;20119;-72
2022/04/11 12:47:00;;;;;;;2.30;1.08;;;21.60;49.30;;;;;;5032349;28;20080;-72
2022/04/11 12:49:26;;;;;;;2.35;0.90;;;21.60;49.30;;;;;;5032568;28;20091;-72